sensor_id;sensor_type;location;lat;lon;timestamp;P1;durP1;ratioP1;P2;durP2;ratioP2
1885;SDS011;943;51.568;6.998;2022-09-09T00:00:15;8.00;;;1.70;;
1885;SDS011;943;51.568;6.998;2022-09-09T00:02:49;4.47;;;1.63;;
1885;SDS011;943;51.568;6.998;2022-09-09T00:09:12;4.80;;;1.90;;
1885;SDS011;943;51.568;6.998;2022-09-09T00:11:52;8.77;;;2.50;;
1885;SDS011;943;51.568;6.998;2022-09-09T00:15:12;5.90;;;2.40;;
1885;SDS011;943;51.568;6.998;2022-09-09T00:21:28;4.40;;;2.00;;
1885;SDS011;943;51.568;6.998;2022-09-09T00:24:23;7.70;;;3.37;;
1885;SDS011;943;51.568;6.998;2022-09-09T00:27:07;9.13;;;2.80;;
1885;SDS011;943;51.568;6.998;2022-09-09T00:30:00;7.20;;;3.10;;
1885;SDS011;943;51.568;6.998;2022-09-09T00:32:53;7.47;;;3.00;;
1885;SDS011;943;51.568;6.998;2022-09-09T00:35:40;6.40;;;3.10;;
1885;SDS011;943;51.568;6.998;2022-09-09T00:53:33;8.70;;;2.77;;
1885;SDS011;943;51.568;6.998;2022-09-09T00:57:26;6.00;;;2.60;;
1885;SDS011;943;51.568;6.998;2022-09-09T01:00:15;4.67;;;2.20;;
1885;SDS011;943;51.568;6.998;2022-09-09T01:09:18;9.07;;;3.40;;
1885;SDS011;943;51.568;6.998;2022-09-09T01:12:16;8.20;;;2.83;;
1885;SDS011;943;51.568;6.998;2022-09-09T01:15:21;4.77;;;2.60;;
1885;SDS011;943;51.568;6.998;2022-09-09T01:18:07;4.83;;;2.43;;
1885;SDS011;943;51.568;6.998;2022-09-09T01:20:49;4.97;;;2.43;;
1885;SDS011;943;51.568;6.998;2022-09-09T01:23:54;5.00;;;2.47;;
1885;SDS011;943;51.568;6.998;2022-09-09T01:27:13;5.73;;;3.00;;
1885;SDS011;943;51.568;6.998;2022-09-09T01:29:44;10.93;;;4.33;;
1885;SDS011;943;51.568;6.998;2022-09-09T01:38:36;10.97;;;6.03;;
1885;SDS011;943;51.568;6.998;2022-09-09T01:41:05;7.03;;;4.20;;
1885;SDS011;943;51.568;6.998;2022-09-09T01:43:42;6.97;;;3.80;;
1885;SDS011;943;51.568;6.998;2022-09-09T01:46:11;5.63;;;3.53;;
1885;SDS011;943;51.568;6.998;2022-09-09T01:48:42;5.83;;;3.00;;
1885;SDS011;943;51.568;6.998;2022-09-09T01:51:12;5.80;;;3.23;;
1885;SDS011;943;51.568;6.998;2022-09-09T01:53:41;9.00;;;3.43;;
1885;SDS011;943;51.568;6.998;2022-09-09T01:56:35;7.03;;;2.90;;
1885;SDS011;943;51.568;6.998;2022-09-09T02:02:52;5.50;;;3.50;;
1885;SDS011;943;51.568;6.998;2022-09-09T02:09:16;8.93;;;3.90;;
1885;SDS011;943;51.568;6.998;2022-09-09T02:12:02;4.30;;;3.03;;
1885;SDS011;943;51.568;6.998;2022-09-09T02:14:55;5.87;;;3.17;;
1885;SDS011;943;51.568;6.998;2022-09-09T02:17:47;6.60;;;2.90;;
1885;SDS011;943;51.568;6.998;2022-09-09T02:20:19;6.67;;;3.77;;
1885;SDS011;943;51.568;6.998;2022-09-09T02:22:59;9.07;;;3.23;;
1885;SDS011;943;51.568;6.998;2022-09-09T02:25:29;11.63;;;3.60;;
1885;SDS011;943;51.568;6.998;2022-09-09T02:28:10;6.83;;;3.07;;
1885;SDS011;943;51.568;6.998;2022-09-09T02:30:42;9.03;;;3.57;;
1885;SDS011;943;51.568;6.998;2022-09-09T02:33:15;10.33;;;3.20;;
1885;SDS011;943;51.568;6.998;2022-09-09T02:35:49;10.77;;;3.70;;
1885;SDS011;943;51.568;6.998;2022-09-09T02:38:23;6.30;;;2.87;;
1885;SDS011;943;51.568;6.998;2022-09-09T02:41:07;6.60;;;3.67;;
1885;SDS011;943;51.568;6.998;2022-09-09T02:43:37;10.10;;;3.83;;
1885;SDS011;943;51.568;6.998;2022-09-09T02:52:02;8.13;;;3.20;;
1885;SDS011;943;51.568;6.998;2022-09-09T02:54:42;6.13;;;4.00;;
1885;SDS011;943;51.568;6.998;2022-09-09T02:57:14;8.20;;;2.97;;
1885;SDS011;943;51.568;6.998;2022-09-09T02:59:57;7.10;;;3.10;;
1885;SDS011;943;51.568;6.998;2022-09-09T03:02:29;6.43;;;2.90;;
1885;SDS011;943;51.568;6.998;2022-09-09T03:05:01;6.20;;;3.10;;
1885;SDS011;943;51.568;6.998;2022-09-09T03:07:30;5.97;;;3.10;;
1885;SDS011;943;51.568;6.998;2022-09-09T03:09:58;4.20;;;2.60;;
1885;SDS011;943;51.568;6.998;2022-09-09T03:12:26;6.53;;;3.60;;
1885;SDS011;943;51.568;6.998;2022-09-09T03:14:54;8.83;;;3.73;;
1885;SDS011;943;51.568;6.998;2022-09-09T03:17:23;8.63;;;3.37;;
1885;SDS011;943;51.568;6.998;2022-09-09T03:19:53;5.90;;;3.77;;
1885;SDS011;943;51.568;6.998;2022-09-09T03:22:21;6.60;;;3.47;;
1885;SDS011;943;51.568;6.998;2022-09-09T03:24:49;7.63;;;3.50;;
1885;SDS011;943;51.568;6.998;2022-09-09T03:27:17;6.40;;;3.00;;
1885;SDS011;943;51.568;6.998;2022-09-09T03:29:46;6.60;;;3.40;;
1885;SDS011;943;51.568;6.998;2022-09-09T03:32:21;5.00;;;2.90;;
1885;SDS011;943;51.568;6.998;2022-09-09T03:34:49;8.60;;;2.60;;
1885;SDS011;943;51.568;6.998;2022-09-09T03:37:17;5.57;;;3.20;;
1885;SDS011;943;51.568;6.998;2022-09-09T03:39:48;10.47;;;4.60;;
1885;SDS011;943;51.568;6.998;2022-09-09T03:42:17;9.87;;;3.50;;
1885;SDS011;943;51.568;6.998;2022-09-09T03:44:49;6.70;;;3.80;;
1885;SDS011;943;51.568;6.998;2022-09-09T03:47:21;9.40;;;3.40;;
1885;SDS011;943;51.568;6.998;2022-09-09T03:49:53;6.47;;;3.30;;
1885;SDS011;943;51.568;6.998;2022-09-09T03:52:20;8.07;;;3.20;;
1885;SDS011;943;51.568;6.998;2022-09-09T03:54:52;9.03;;;3.40;;
1885;SDS011;943;51.568;6.998;2022-09-09T03:57:21;8.27;;;3.60;;
1885;SDS011;943;51.568;6.998;2022-09-09T03:59:49;8.20;;;3.50;;
1885;SDS011;943;51.568;6.998;2022-09-09T04:02:16;8.10;;;3.73;;
1885;SDS011;943;51.568;6.998;2022-09-09T04:04:45;11.33;;;5.80;;
1885;SDS011;943;51.568;6.998;2022-09-09T04:07:13;9.57;;;4.07;;
1885;SDS011;943;51.568;6.998;2022-09-09T04:09:42;5.90;;;3.60;;
1885;SDS011;943;51.568;6.998;2022-09-09T04:12:12;7.27;;;3.13;;
1885;SDS011;943;51.568;6.998;2022-09-09T04:14:41;12.23;;;4.10;;
1885;SDS011;943;51.568;6.998;2022-09-09T04:17:09;5.93;;;3.50;;
1885;SDS011;943;51.568;6.998;2022-09-09T04:19:37;7.00;;;3.40;;
1885;SDS011;943;51.568;6.998;2022-09-09T04:22:05;6.50;;;3.80;;
1885;SDS011;943;51.568;6.998;2022-09-09T04:24:33;7.70;;;4.37;;
1885;SDS011;943;51.568;6.998;2022-09-09T04:27:01;10.23;;;4.13;;
1885;SDS011;943;51.568;6.998;2022-09-09T04:29:32;5.43;;;3.63;;
1885;SDS011;943;51.568;6.998;2022-09-09T04:32:01;11.80;;;4.90;;
1885;SDS011;943;51.568;6.998;2022-09-09T04:34:28;7.63;;;4.27;;
1885;SDS011;943;51.568;6.998;2022-09-09T04:36:57;13.13;;;3.80;;
1885;SDS011;943;51.568;6.998;2022-09-09T04:39:26;6.13;;;3.53;;
1885;SDS011;943;51.568;6.998;2022-09-09T04:41:54;17.00;;;4.10;;
1885;SDS011;943;51.568;6.998;2022-09-09T04:44:22;6.50;;;3.70;;
1885;SDS011;943;51.568;6.998;2022-09-09T04:46:50;15.03;;;8.27;;
1885;SDS011;943;51.568;6.998;2022-09-09T04:49:19;28.70;;;21.50;;
1885;SDS011;943;51.568;6.998;2022-09-09T04:51:48;41.07;;;30.17;;
1885;SDS011;943;51.568;6.998;2022-09-09T04:54:17;56.03;;;41.40;;
1885;SDS011;943;51.568;6.998;2022-09-09T04:56:45;64.30;;;43.53;;
1885;SDS011;943;51.568;6.998;2022-09-09T04:59:13;62.67;;;44.17;;
1885;SDS011;943;51.568;6.998;2022-09-09T05:01:44;64.33;;;46.87;;
1885;SDS011;943;51.568;6.998;2022-09-09T05:04:13;63.23;;;46.80;;
1885;SDS011;943;51.568;6.998;2022-09-09T05:06:43;55.70;;;41.87;;
1885;SDS011;943;51.568;6.998;2022-09-09T05:09:12;56.03;;;40.53;;
1885;SDS011;943;51.568;6.998;2022-09-09T05:11:40;52.67;;;43.97;;
1885;SDS011;943;51.568;6.998;2022-09-09T05:14:15;50.50;;;40.03;;
1885;SDS011;943;51.568;6.998;2022-09-09T05:16:46;53.20;;;43.67;;
1885;SDS011;943;51.568;6.998;2022-09-09T05:19:16;48.63;;;39.80;;
1885;SDS011;943;51.568;6.998;2022-09-09T05:21:47;46.63;;;38.60;;
1885;SDS011;943;51.568;6.998;2022-09-09T05:24:20;50.60;;;40.37;;
1885;SDS011;943;51.568;6.998;2022-09-09T05:26:52;40.87;;;31.50;;
1885;SDS011;943;51.568;6.998;2022-09-09T05:29:20;37.70;;;30.30;;
1885;SDS011;943;51.568;6.998;2022-09-09T05:31:48;27.23;;;23.50;;
1885;SDS011;943;51.568;6.998;2022-09-09T05:34:19;29.50;;;22.53;;
1885;SDS011;943;51.568;6.998;2022-09-09T05:36:48;20.63;;;14.50;;
1885;SDS011;943;51.568;6.998;2022-09-09T05:39:16;20.33;;;14.63;;
1885;SDS011;943;51.568;6.998;2022-09-09T05:41:44;16.00;;;11.73;;
1885;SDS011;943;51.568;6.998;2022-09-09T05:44:12;16.90;;;11.80;;
1885;SDS011;943;51.568;6.998;2022-09-09T05:46:40;19.17;;;11.13;;
1885;SDS011;943;51.568;6.998;2022-09-09T05:49:08;17.50;;;10.00;;
1885;SDS011;943;51.568;6.998;2022-09-09T05:51:38;13.10;;;7.90;;
1885;SDS011;943;51.568;6.998;2022-09-09T05:54:09;13.80;;;8.80;;
1885;SDS011;943;51.568;6.998;2022-09-09T05:56:44;16.53;;;8.33;;
1885;SDS011;943;51.568;6.998;2022-09-09T05:59:17;14.87;;;9.03;;
1885;SDS011;943;51.568;6.998;2022-09-09T06:01:45;17.70;;;8.57;;
1885;SDS011;943;51.568;6.998;2022-09-09T06:04:20;11.57;;;6.50;;
1885;SDS011;943;51.568;6.998;2022-09-09T06:06:49;14.63;;;7.43;;
1885;SDS011;943;51.568;6.998;2022-09-09T06:09:19;10.30;;;6.20;;
1885;SDS011;943;51.568;6.998;2022-09-09T06:11:48;14.40;;;6.87;;
1885;SDS011;943;51.568;6.998;2022-09-09T06:14:16;11.70;;;6.27;;
1885;SDS011;943;51.568;6.998;2022-09-09T06:16:47;11.90;;;5.10;;
1885;SDS011;943;51.568;6.998;2022-09-09T06:19:24;10.43;;;5.17;;
1885;SDS011;943;51.568;6.998;2022-09-09T06:21:56;13.80;;;5.07;;
1885;SDS011;943;51.568;6.998;2022-09-09T06:24:27;9.03;;;4.73;;
1885;SDS011;943;51.568;6.998;2022-09-09T06:26:58;9.43;;;4.10;;
1885;SDS011;943;51.568;6.998;2022-09-09T06:29:30;10.67;;;4.10;;
1885;SDS011;943;51.568;6.998;2022-09-09T06:31:57;7.67;;;4.10;;
1885;SDS011;943;51.568;6.998;2022-09-09T06:34:26;8.63;;;4.80;;
1885;SDS011;943;51.568;6.998;2022-09-09T06:36:57;10.17;;;3.40;;
1885;SDS011;943;51.568;6.998;2022-09-09T06:39:30;7.37;;;2.70;;
1885;SDS011;943;51.568;6.998;2022-09-09T06:41:58;8.83;;;3.53;;
1885;SDS011;943;51.568;6.998;2022-09-09T06:44:44;6.90;;;2.97;;
1885;SDS011;943;51.568;6.998;2022-09-09T06:47:20;6.80;;;2.90;;
1885;SDS011;943;51.568;6.998;2022-09-09T06:49:49;4.80;;;2.67;;
1885;SDS011;943;51.568;6.998;2022-09-09T06:52:18;6.83;;;2.77;;
1885;SDS011;943;51.568;6.998;2022-09-09T06:54:46;10.27;;;3.60;;
1885;SDS011;943;51.568;6.998;2022-09-09T06:57:15;7.50;;;2.57;;
1885;SDS011;943;51.568;6.998;2022-09-09T07:00:07;8.37;;;3.20;;
1885;SDS011;943;51.568;6.998;2022-09-09T07:02:36;5.43;;;2.30;;
1885;SDS011;943;51.568;6.998;2022-09-09T07:05:06;6.03;;;2.47;;
1885;SDS011;943;51.568;6.998;2022-09-09T07:07:37;4.40;;;2.30;;
1885;SDS011;943;51.568;6.998;2022-09-09T07:10:05;9.17;;;2.90;;
1885;SDS011;943;51.568;6.998;2022-09-09T07:12:36;11.00;;;3.30;;
1885;SDS011;943;51.568;6.998;2022-09-09T07:15:07;6.80;;;2.80;;
1885;SDS011;943;51.568;6.998;2022-09-09T07:17:39;6.10;;;2.47;;
1885;SDS011;943;51.568;6.998;2022-09-09T07:20:07;10.00;;;2.87;;
1885;SDS011;943;51.568;6.998;2022-09-09T07:22:35;8.40;;;2.97;;
1885;SDS011;943;51.568;6.998;2022-09-09T07:25:03;5.83;;;2.20;;
1885;SDS011;943;51.568;6.998;2022-09-09T07:27:32;6.80;;;2.60;;
1885;SDS011;943;51.568;6.998;2022-09-09T07:30:01;8.00;;;2.43;;
1885;SDS011;943;51.568;6.998;2022-09-09T07:32:31;7.47;;;2.60;;
1885;SDS011;943;51.568;6.998;2022-09-09T07:35:00;5.47;;;2.47;;
1885;SDS011;943;51.568;6.998;2022-09-09T07:37:28;7.40;;;2.77;;
1885;SDS011;943;51.568;6.998;2022-09-09T07:39:56;10.10;;;2.60;;
1885;SDS011;943;51.568;6.998;2022-09-09T07:42:25;6.97;;;2.63;;
1885;SDS011;943;51.568;6.998;2022-09-09T07:44:53;7.37;;;2.20;;
1885;SDS011;943;51.568;6.998;2022-09-09T07:47:21;7.00;;;2.93;;
1885;SDS011;943;51.568;6.998;2022-09-09T07:49:51;8.43;;;1.87;;
1885;SDS011;943;51.568;6.998;2022-09-09T07:52:24;5.40;;;1.97;;
1885;SDS011;943;51.568;6.998;2022-09-09T07:54:55;6.50;;;2.07;;
1885;SDS011;943;51.568;6.998;2022-09-09T07:57:23;4.60;;;1.80;;
1885;SDS011;943;51.568;6.998;2022-09-09T07:59:52;2.90;;;1.43;;
1885;SDS011;943;51.568;6.998;2022-09-09T08:02:21;4.50;;;1.70;;
1885;SDS011;943;51.568;6.998;2022-09-09T08:04:52;9.10;;;2.07;;
1885;SDS011;943;51.568;6.998;2022-09-09T08:07:20;5.60;;;1.70;;
1885;SDS011;943;51.568;6.998;2022-09-09T08:09:52;5.57;;;1.57;;
1885;SDS011;943;51.568;6.998;2022-09-09T08:12:26;7.93;;;1.90;;
1885;SDS011;943;51.568;6.998;2022-09-09T08:14:55;6.53;;;2.53;;
1885;SDS011;943;51.568;6.998;2022-09-09T08:17:27;4.50;;;1.83;;
1885;SDS011;943;51.568;6.998;2022-09-09T08:19:56;3.80;;;1.60;;
1885;SDS011;943;51.568;6.998;2022-09-09T08:22:27;9.73;;;1.80;;
1885;SDS011;943;51.568;6.998;2022-09-09T08:24:55;5.03;;;2.20;;
1885;SDS011;943;51.568;6.998;2022-09-09T08:27:23;4.70;;;1.60;;
1885;SDS011;943;51.568;6.998;2022-09-09T08:29:53;6.20;;;2.33;;
1885;SDS011;943;51.568;6.998;2022-09-09T08:32:23;5.60;;;1.77;;
1885;SDS011;943;51.568;6.998;2022-09-09T08:34:50;9.03;;;2.20;;
1885;SDS011;943;51.568;6.998;2022-09-09T08:37:22;6.97;;;1.93;;
1885;SDS011;943;51.568;6.998;2022-09-09T08:39:50;7.90;;;2.13;;
1885;SDS011;943;51.568;6.998;2022-09-09T08:45:22;3.90;;;1.90;;
1885;SDS011;943;51.568;6.998;2022-09-09T08:51:53;4.57;;;2.23;;
1885;SDS011;943;51.568;6.998;2022-09-09T08:54:23;7.10;;;1.73;;
1885;SDS011;943;51.568;6.998;2022-09-09T08:57:25;10.23;;;2.10;;
1885;SDS011;943;51.568;6.998;2022-09-09T08:59:58;4.63;;;1.30;;
1885;SDS011;943;51.568;6.998;2022-09-09T09:05:46;10.40;;;1.73;;
1885;SDS011;943;51.568;6.998;2022-09-09T09:09:02;3.23;;;1.20;;
1885;SDS011;943;51.568;6.998;2022-09-09T09:11:44;3.47;;;1.20;;
1885;SDS011;943;51.568;6.998;2022-09-09T09:14:34;6.97;;;1.60;;
1885;SDS011;943;51.568;6.998;2022-09-09T09:17:20;9.33;;;1.90;;
1885;SDS011;943;51.568;6.998;2022-09-09T09:19:58;8.53;;;1.30;;
1885;SDS011;943;51.568;6.998;2022-09-09T09:25:23;3.23;;;1.10;;
1885;SDS011;943;51.568;6.998;2022-09-09T09:28:16;8.13;;;1.60;;
1885;SDS011;943;51.568;6.998;2022-09-09T09:31:06;7.13;;;1.67;;
1885;SDS011;943;51.568;6.998;2022-09-09T09:36:21;4.13;;;1.60;;
1885;SDS011;943;51.568;6.998;2022-09-09T09:39:10;4.60;;;1.20;;
1885;SDS011;943;51.568;6.998;2022-09-09T09:42:13;2.80;;;1.13;;
1885;SDS011;943;51.568;6.998;2022-09-09T09:44:51;6.30;;;1.27;;
1885;SDS011;943;51.568;6.998;2022-09-09T09:47:21;5.63;;;1.50;;
1885;SDS011;943;51.568;6.998;2022-09-09T09:50:16;4.10;;;1.70;;
1885;SDS011;943;51.568;6.998;2022-09-09T09:52:57;4.77;;;1.07;;
1885;SDS011;943;51.568;6.998;2022-09-09T09:55:51;3.90;;;1.70;;
1885;SDS011;943;51.568;6.998;2022-09-09T10:01:28;7.20;;;1.63;;
1885;SDS011;943;51.568;6.998;2022-09-09T10:04:20;7.60;;;1.40;;
1885;SDS011;943;51.568;6.998;2022-09-09T10:06:53;8.87;;;1.43;;
1885;SDS011;943;51.568;6.998;2022-09-09T10:09:25;5.53;;;1.57;;
1885;SDS011;943;51.568;6.998;2022-09-09T10:21:48;9.90;;;1.90;;
1885;SDS011;943;51.568;6.998;2022-09-09T10:28:35;6.60;;;3.00;;
1885;SDS011;943;51.568;6.998;2022-09-09T10:35:27;3.90;;;1.73;;
1885;SDS011;943;51.568;6.998;2022-09-09T10:38:39;4.43;;;1.47;;
1885;SDS011;943;51.568;6.998;2022-09-09T10:44:58;2.80;;;1.17;;
1885;SDS011;943;51.568;6.998;2022-09-09T10:47:53;4.80;;;1.00;;
1885;SDS011;943;51.568;6.998;2022-09-09T10:51:02;5.23;;;1.57;;
1885;SDS011;943;51.568;6.998;2022-09-09T10:57:48;6.80;;;1.10;;
1885;SDS011;943;51.568;6.998;2022-09-09T11:00:24;6.17;;;1.77;;
1885;SDS011;943;51.568;6.998;2022-09-09T11:03:30;3.13;;;0.93;;
1885;SDS011;943;51.568;6.998;2022-09-09T11:06:06;4.73;;;1.10;;
1885;SDS011;943;51.568;6.998;2022-09-09T11:08:49;3.70;;;1.10;;
1885;SDS011;943;51.568;6.998;2022-09-09T11:11:36;4.80;;;1.90;;
1885;SDS011;943;51.568;6.998;2022-09-09T11:14:37;3.10;;;1.30;;
1885;SDS011;943;51.568;6.998;2022-09-09T11:17:25;5.03;;;1.50;;
1885;SDS011;943;51.568;6.998;2022-09-09T11:20:17;6.37;;;1.63;;
1885;SDS011;943;51.568;6.998;2022-09-09T11:22:46;2.30;;;0.80;;
1885;SDS011;943;51.568;6.998;2022-09-09T11:25:36;3.73;;;1.60;;
1885;SDS011;943;51.568;6.998;2022-09-09T11:28:58;3.23;;;1.20;;
1885;SDS011;943;51.568;6.998;2022-09-09T11:32:24;4.07;;;1.30;;
1885;SDS011;943;51.568;6.998;2022-09-09T11:35:26;6.53;;;1.00;;
1885;SDS011;943;51.568;6.998;2022-09-09T11:38:36;5.93;;;1.20;;
1885;SDS011;943;51.568;6.998;2022-09-09T11:41:19;4.30;;;1.57;;
1885;SDS011;943;51.568;6.998;2022-09-09T11:43:51;3.37;;;1.20;;
1885;SDS011;943;51.568;6.998;2022-09-09T11:46:21;10.30;;;2.40;;
1885;SDS011;943;51.568;6.998;2022-09-09T11:49:05;4.43;;;1.23;;
1885;SDS011;943;51.568;6.998;2022-09-09T11:52:13;5.17;;;1.77;;
1885;SDS011;943;51.568;6.998;2022-09-09T11:58:03;4.93;;;2.00;;
1885;SDS011;943;51.568;6.998;2022-09-09T12:00:38;4.63;;;1.20;;
1885;SDS011;943;51.568;6.998;2022-09-09T12:06:41;3.67;;;1.53;;
1885;SDS011;943;51.568;6.998;2022-09-09T12:09:51;3.80;;;1.10;;
1885;SDS011;943;51.568;6.998;2022-09-09T12:13:09;3.77;;;1.33;;
1885;SDS011;943;51.568;6.998;2022-09-09T12:15:48;5.83;;;1.20;;
1885;SDS011;943;51.568;6.998;2022-09-09T12:21:18;3.10;;;1.53;;
1885;SDS011;943;51.568;6.998;2022-09-09T12:24:09;5.43;;;1.63;;
1885;SDS011;943;51.568;6.998;2022-09-09T12:27:06;3.10;;;1.17;;
1885;SDS011;943;51.568;6.998;2022-09-09T12:30:10;4.27;;;1.27;;
1885;SDS011;943;51.568;6.998;2022-09-09T12:32:42;5.97;;;1.33;;
1885;SDS011;943;51.568;6.998;2022-09-09T12:35:18;4.37;;;1.20;;
1885;SDS011;943;51.568;6.998;2022-09-09T12:38:00;3.77;;;1.10;;
1885;SDS011;943;51.568;6.998;2022-09-09T12:40:34;4.53;;;1.30;;
1885;SDS011;943;51.568;6.998;2022-09-09T12:43:14;4.10;;;1.20;;
1885;SDS011;943;51.568;6.998;2022-09-09T12:45:51;3.87;;;1.00;;
1885;SDS011;943;51.568;6.998;2022-09-09T12:48:36;4.03;;;1.07;;
1885;SDS011;943;51.568;6.998;2022-09-09T12:51:19;6.50;;;1.03;;
1885;SDS011;943;51.568;6.998;2022-09-09T12:53:58;3.30;;;1.23;;
1885;SDS011;943;51.568;6.998;2022-09-09T12:56:28;5.00;;;1.37;;
1885;SDS011;943;51.568;6.998;2022-09-09T12:58:59;7.80;;;1.73;;
1885;SDS011;943;51.568;6.998;2022-09-09T13:01:29;3.17;;;0.87;;
1885;SDS011;943;51.568;6.998;2022-09-09T13:04:00;4.13;;;1.53;;
1885;SDS011;943;51.568;6.998;2022-09-09T13:06:30;6.03;;;1.70;;
1885;SDS011;943;51.568;6.998;2022-09-09T13:09:02;7.53;;;2.27;;
1885;SDS011;943;51.568;6.998;2022-09-09T13:11:33;5.23;;;1.37;;
1885;SDS011;943;51.568;6.998;2022-09-09T13:14:17;6.10;;;1.53;;
1885;SDS011;943;51.568;6.998;2022-09-09T13:17:04;7.13;;;1.60;;
1885;SDS011;943;51.568;6.998;2022-09-09T13:19:48;5.00;;;1.87;;
1885;SDS011;943;51.568;6.998;2022-09-09T13:30:54;5.30;;;2.00;;
1885;SDS011;943;51.568;6.998;2022-09-09T13:33:37;5.57;;;1.80;;
1885;SDS011;943;51.568;6.998;2022-09-09T13:36:07;4.37;;;1.70;;
1885;SDS011;943;51.568;6.998;2022-09-09T13:38:53;3.43;;;1.50;;
1885;SDS011;943;51.568;6.998;2022-09-09T13:44:03;3.27;;;1.50;;
1885;SDS011;943;51.568;6.998;2022-09-09T13:46:36;3.83;;;1.30;;
1885;SDS011;943;51.568;6.998;2022-09-09T13:54:15;2.73;;;1.20;;
1885;SDS011;943;51.568;6.998;2022-09-09T13:56:46;2.57;;;1.60;;
1885;SDS011;943;51.568;6.998;2022-09-09T13:59:17;5.20;;;1.63;;
1885;SDS011;943;51.568;6.998;2022-09-09T14:01:46;3.70;;;1.70;;
1885;SDS011;943;51.568;6.998;2022-09-09T14:04:15;3.50;;;1.73;;
1885;SDS011;943;51.568;6.998;2022-09-09T14:06:43;4.53;;;1.70;;
1885;SDS011;943;51.568;6.998;2022-09-09T14:09:12;6.80;;;1.87;;
1885;SDS011;943;51.568;6.998;2022-09-09T14:11:44;4.80;;;1.80;;
1885;SDS011;943;51.568;6.998;2022-09-09T14:14:13;7.40;;;1.83;;
1885;SDS011;943;51.568;6.998;2022-09-09T14:16:43;4.77;;;1.77;;
1885;SDS011;943;51.568;6.998;2022-09-09T14:19:11;5.60;;;1.77;;
1885;SDS011;943;51.568;6.998;2022-09-09T14:21:39;3.37;;;1.47;;
1885;SDS011;943;51.568;6.998;2022-09-09T14:24:06;5.33;;;2.37;;
1885;SDS011;943;51.568;6.998;2022-09-09T14:26:34;3.90;;;1.73;;
1885;SDS011;943;51.568;6.998;2022-09-09T14:29:03;3.67;;;1.53;;
1885;SDS011;943;51.568;6.998;2022-09-09T14:31:30;7.43;;;2.13;;
1885;SDS011;943;51.568;6.998;2022-09-09T14:33:59;4.90;;;1.77;;
1885;SDS011;943;51.568;6.998;2022-09-09T14:36:26;4.73;;;1.80;;
1885;SDS011;943;51.568;6.998;2022-09-09T14:38:54;3.53;;;1.83;;
1885;SDS011;943;51.568;6.998;2022-09-09T14:41:21;5.13;;;1.50;;
1885;SDS011;943;51.568;6.998;2022-09-09T14:43:49;3.70;;;1.60;;
1885;SDS011;943;51.568;6.998;2022-09-09T14:46:19;9.20;;;1.60;;
1885;SDS011;943;51.568;6.998;2022-09-09T14:48:48;4.60;;;1.87;;
1885;SDS011;943;51.568;6.998;2022-09-09T14:51:22;4.70;;;1.70;;
1885;SDS011;943;51.568;6.998;2022-09-09T14:53:55;4.07;;;1.50;;
1885;SDS011;943;51.568;6.998;2022-09-09T14:56:27;5.73;;;1.80;;
1885;SDS011;943;51.568;6.998;2022-09-09T14:59:02;6.17;;;2.53;;
1885;SDS011;943;51.568;6.998;2022-09-09T15:01:31;5.60;;;1.67;;
1885;SDS011;943;51.568;6.998;2022-09-09T15:03:59;4.03;;;2.13;;
1885;SDS011;943;51.568;6.998;2022-09-09T15:06:32;4.10;;;2.00;;
1885;SDS011;943;51.568;6.998;2022-09-09T15:09:05;7.80;;;2.97;;
1885;SDS011;943;51.568;6.998;2022-09-09T15:11:34;4.50;;;2.47;;
1885;SDS011;943;51.568;6.998;2022-09-09T15:14:05;4.30;;;1.77;;
1885;SDS011;943;51.568;6.998;2022-09-09T15:16:36;3.90;;;1.70;;
1885;SDS011;943;51.568;6.998;2022-09-09T15:19:06;8.70;;;2.07;;
1885;SDS011;943;51.568;6.998;2022-09-09T15:21:36;5.07;;;1.30;;
1885;SDS011;943;51.568;6.998;2022-09-09T15:24:05;4.07;;;1.00;;
1885;SDS011;943;51.568;6.998;2022-09-09T15:26:34;5.37;;;0.90;;
1885;SDS011;943;51.568;6.998;2022-09-09T15:29:05;2.50;;;1.10;;
1885;SDS011;943;51.568;6.998;2022-09-09T15:31:35;2.67;;;1.30;;
1885;SDS011;943;51.568;6.998;2022-09-09T15:34:06;2.80;;;1.17;;
1885;SDS011;943;51.568;6.998;2022-09-09T15:39:10;3.13;;;1.23;;
1885;SDS011;943;51.568;6.998;2022-09-09T15:41:43;3.20;;;1.20;;
1885;SDS011;943;51.568;6.998;2022-09-09T15:44:15;3.13;;;1.60;;
1885;SDS011;943;51.568;6.998;2022-09-09T15:46:48;3.30;;;1.00;;
1885;SDS011;943;51.568;6.998;2022-09-09T15:49:23;2.93;;;1.40;;
1885;SDS011;943;51.568;6.998;2022-09-09T15:51:57;4.80;;;1.53;;
1885;SDS011;943;51.568;6.998;2022-09-09T15:54:35;7.37;;;1.80;;
1885;SDS011;943;51.568;6.998;2022-09-09T15:57:06;4.30;;;1.77;;
1885;SDS011;943;51.568;6.998;2022-09-09T15:59:38;5.03;;;1.97;;
1885;SDS011;943;51.568;6.998;2022-09-09T16:02:06;5.00;;;2.23;;
1885;SDS011;943;51.568;6.998;2022-09-09T16:04:36;4.90;;;2.50;;
1885;SDS011;943;51.568;6.998;2022-09-09T16:07:04;4.60;;;2.30;;
1885;SDS011;943;51.568;6.998;2022-09-09T16:09:34;3.37;;;1.80;;
1885;SDS011;943;51.568;6.998;2022-09-09T16:12:03;6.00;;;1.90;;
1885;SDS011;943;51.568;6.998;2022-09-09T16:14:36;5.17;;;1.90;;
1885;SDS011;943;51.568;6.998;2022-09-09T16:17:05;4.10;;;2.37;;
1885;SDS011;943;51.568;6.998;2022-09-09T16:19:33;7.30;;;1.87;;
1885;SDS011;943;51.568;6.998;2022-09-09T16:22:01;3.23;;;1.67;;
1885;SDS011;943;51.568;6.998;2022-09-09T16:24:32;3.50;;;1.70;;
1885;SDS011;943;51.568;6.998;2022-09-09T16:27:00;4.20;;;1.53;;
1885;SDS011;943;51.568;6.998;2022-09-09T16:29:28;3.00;;;1.67;;
1885;SDS011;943;51.568;6.998;2022-09-09T16:31:56;2.97;;;1.50;;
1885;SDS011;943;51.568;6.998;2022-09-09T16:34:29;2.47;;;1.00;;
1885;SDS011;943;51.568;6.998;2022-09-09T16:36:57;3.97;;;1.63;;
1885;SDS011;943;51.568;6.998;2022-09-09T16:39:24;3.43;;;1.80;;
1885;SDS011;943;51.568;6.998;2022-09-09T16:41:52;7.73;;;2.60;;
1885;SDS011;943;51.568;6.998;2022-09-09T16:44:20;2.67;;;1.50;;
1885;SDS011;943;51.568;6.998;2022-09-09T16:46:48;3.93;;;1.40;;
1885;SDS011;943;51.568;6.998;2022-09-09T16:49:25;5.60;;;1.40;;
1885;SDS011;943;51.568;6.998;2022-09-09T16:51:56;2.87;;;1.17;;
1885;SDS011;943;51.568;6.998;2022-09-09T16:54:26;5.37;;;1.77;;
1885;SDS011;943;51.568;6.998;2022-09-09T16:56:55;4.87;;;1.80;;
1885;SDS011;943;51.568;6.998;2022-09-09T16:59:23;4.67;;;1.30;;
1885;SDS011;943;51.568;6.998;2022-09-09T17:01:53;4.20;;;1.40;;
1885;SDS011;943;51.568;6.998;2022-09-09T17:04:22;2.20;;;1.20;;
1885;SDS011;943;51.568;6.998;2022-09-09T17:06:54;5.40;;;1.53;;
1885;SDS011;943;51.568;6.998;2022-09-09T17:09:24;3.30;;;1.40;;
1885;SDS011;943;51.568;6.998;2022-09-09T17:11:57;3.93;;;1.97;;
1885;SDS011;943;51.568;6.998;2022-09-09T17:14:26;5.20;;;1.77;;
1885;SDS011;943;51.568;6.998;2022-09-09T17:16:54;2.67;;;1.70;;
1885;SDS011;943;51.568;6.998;2022-09-09T17:19:39;2.80;;;1.47;;
1885;SDS011;943;51.568;6.998;2022-09-09T17:22:06;3.10;;;1.80;;
1885;SDS011;943;51.568;6.998;2022-09-09T17:24:43;3.50;;;2.07;;
1885;SDS011;943;51.568;6.998;2022-09-09T17:27:12;3.40;;;1.73;;
1885;SDS011;943;51.568;6.998;2022-09-09T17:29:40;3.73;;;2.00;;
1885;SDS011;943;51.568;6.998;2022-09-09T17:32:09;9.20;;;2.53;;
1885;SDS011;943;51.568;6.998;2022-09-09T17:34:37;5.53;;;2.00;;
1885;SDS011;943;51.568;6.998;2022-09-09T17:37:05;3.70;;;2.00;;
1885;SDS011;943;51.568;6.998;2022-09-09T17:39:33;7.30;;;2.30;;
1885;SDS011;943;51.568;6.998;2022-09-09T17:42:01;4.57;;;2.00;;
1885;SDS011;943;51.568;6.998;2022-09-09T17:44:29;6.40;;;2.60;;
1885;SDS011;943;51.568;6.998;2022-09-09T17:46:58;5.17;;;2.50;;
1885;SDS011;943;51.568;6.998;2022-09-09T17:49:26;4.67;;;1.90;;
1885;SDS011;943;51.568;6.998;2022-09-09T17:51:54;4.73;;;2.30;;
1885;SDS011;943;51.568;6.998;2022-09-09T17:54:22;4.63;;;3.20;;
1885;SDS011;943;51.568;6.998;2022-09-09T17:56:50;5.20;;;2.93;;
1885;SDS011;943;51.568;6.998;2022-09-09T17:59:18;5.83;;;2.40;;
1885;SDS011;943;51.568;6.998;2022-09-09T18:01:47;5.07;;;3.17;;
1885;SDS011;943;51.568;6.998;2022-09-09T18:04:17;3.73;;;2.57;;
1885;SDS011;943;51.568;6.998;2022-09-09T18:06:47;4.20;;;2.40;;
1885;SDS011;943;51.568;6.998;2022-09-09T18:09:21;4.47;;;2.40;;
1885;SDS011;943;51.568;6.998;2022-09-09T18:11:53;6.10;;;2.93;;
1885;SDS011;943;51.568;6.998;2022-09-09T18:14:29;4.63;;;2.43;;
1885;SDS011;943;51.568;6.998;2022-09-09T18:17:00;5.20;;;2.47;;